createdAt,value
2019-03-11T00:01:47.244Z,94482.70
2019-03-11T00:04:16.660Z,94489.83
2019-03-11T00:06:45.735Z,94490.53
2019-03-11T00:09:14.644Z,94485.89
2019-03-11T00:11:43.261Z,94499.34
2019-03-11T00:14:11.852Z,94487.36
2019-03-11T00:16:40.488Z,94474.78
2019-03-11T00:19:09.081Z,94491.78
2019-03-11T00:21:37.701Z,94488.38
2019-03-11T00:24:06.315Z,94486.86
2019-03-11T00:26:34.937Z,94485.64
2019-03-11T00:29:03.596Z,94481.92
2019-03-11T00:31:32.182Z,94473.92
2019-03-11T00:34:00.808Z,94479.69
2019-03-11T00:36:29.417Z,94474.99
2019-03-11T00:38:58.018Z,94480.36
2019-03-11T00:41:26.622Z,94483.56
2019-03-11T00:43:55.226Z,94466.55
2019-03-11T00:46:23.805Z,94474.55
2019-03-11T00:48:52.410Z,94464.63
2019-03-11T00:51:21.151Z,94469.23
2019-03-11T00:53:49.779Z,94467.31
2019-03-11T00:56:18.363Z,94459.38
2019-03-11T00:58:47.006Z,94464.59
2019-03-11T01:01:15.594Z,94466.59
2019-03-11T01:03:44.245Z,94457.84
2019-03-11T01:06:12.906Z,94452.55
2019-03-11T01:08:41.520Z,94454.16
2019-03-11T01:11:10.173Z,94441.73
2019-03-11T01:13:38.803Z,94448.11
2019-03-11T01:16:07.472Z,94445.66
2019-03-11T01:18:36.077Z,94445.75
2019-03-11T01:21:04.733Z,94447.31
2019-03-11T01:23:33.355Z,94438.95
2019-03-11T01:26:01.942Z,94431.66
2019-03-11T01:28:30.555Z,94425.83
2019-03-11T01:30:59.181Z,94421.57
2019-03-11T01:33:27.821Z,94419.31
2019-03-11T01:35:56.417Z,94423.95
2019-03-11T01:38:25.042Z,94418.21
2019-03-11T01:40:53.678Z,94417.06
2019-03-11T01:43:22.280Z,94408.50
2019-03-11T01:45:51.017Z,94401.34
2019-03-11T01:48:19.890Z,94406.66
2019-03-11T01:50:48.722Z,94394.88
2019-03-11T01:53:17.358Z,94380.75
2019-03-11T01:55:45.950Z,94388.56
2019-03-11T01:58:14.554Z,94386.77
2019-03-11T02:00:43.149Z,94375.69
2019-03-11T02:03:11.791Z,94388.44
2019-03-11T02:05:40.382Z,94377.89
2019-03-11T02:08:08.967Z,94378.25
2019-03-11T02:10:37.662Z,94388.02
2019-03-11T02:13:06.559Z,94382.59
2019-03-11T02:15:35.425Z,94358.08
2019-03-11T02:18:04.037Z,94363.48
2019-03-11T02:20:32.644Z,94366.63
2019-03-11T02:23:01.268Z,94350.44
2019-03-11T02:25:29.843Z,94343.72
2019-03-11T02:27:58.442Z,94340.55
2019-03-11T02:30:27.070Z,94337.37
2019-03-11T02:32:56.030Z,94321.00
2019-03-11T02:35:28.730Z,94335.15
2019-03-11T02:37:57.577Z,94349.09
2019-03-11T02:40:26.345Z,94331.70
2019-03-11T02:42:55.059Z,94334.22
2019-03-11T02:45:23.658Z,94319.30
2019-03-11T02:47:52.333Z,94328.05
2019-03-11T02:50:21.048Z,94336.25
2019-03-11T02:52:49.654Z,94331.20
2019-03-11T02:55:18.280Z,94329.39
2019-03-11T02:57:46.933Z,94335.69
2019-03-11T03:00:16.721Z,94326.72
2019-03-11T03:02:54.121Z,94327.02
2019-03-11T03:05:25.906Z,94326.32
2019-03-11T03:07:54.501Z,94338.58
2019-03-11T03:10:23.309Z,94325.25
2019-03-11T03:12:51.904Z,94334.52
2019-03-11T03:15:20.490Z,94329.56
2019-03-11T03:17:49.132Z,94336.22
2019-03-11T03:20:18.123Z,94326.97
2019-03-11T03:22:46.719Z,94329.56
2019-03-11T03:25:15.514Z,94336.38
2019-03-11T03:27:44.151Z,94339.19
2019-03-11T03:30:14.694Z,94326.83
2019-03-11T03:32:43.311Z,94339.58
2019-03-11T03:35:11.905Z,94334.08
2019-03-11T03:37:40.510Z,94328.67
2019-03-11T03:40:09.473Z,94329.06
2019-03-11T03:42:38.158Z,94329.95
2019-03-11T03:45:39.558Z,94333.98
2019-03-11T03:48:08.216Z,94323.70
2019-03-11T03:50:40.323Z,94319.67
2019-03-11T03:53:09.528Z,94324.63
2019-03-11T03:55:38.175Z,94324.88
2019-03-11T03:58:06.947Z,94329.30
2019-03-11T04:00:35.581Z,94326.23
2019-03-11T04:03:04.278Z,94330.19
2019-03-11T04:05:32.850Z,94334.66
2019-03-11T04:08:01.488Z,94340.22
2019-03-11T04:10:32.560Z,94338.36
2019-03-11T04:13:00.441Z,94323.41
2019-03-11T04:15:29.101Z,94334.98
2019-03-11T04:17:57.637Z,94336.44
2019-03-11T04:20:26.417Z,94319.83
2019-03-11T04:22:55.040Z,94324.02
2019-03-11T04:25:23.822Z,94341.41
2019-03-11T04:27:52.797Z,94343.77
2019-03-11T04:30:22.582Z,94349.48
2019-03-11T04:32:51.199Z,94350.70
2019-03-11T04:35:19.770Z,94362.42
2019-03-11T04:37:48.359Z,94359.83
2019-03-11T04:40:17.246Z,94366.05
2019-03-11T04:42:45.845Z,94370.78
2019-03-11T04:45:14.653Z,94369.72
2019-03-11T04:47:43.397Z,94375.76
2019-03-11T04:50:12.966Z,94373.52
2019-03-11T04:52:41.572Z,94390.01
2019-03-11T04:55:11.056Z,94390.59
2019-03-11T04:57:45.183Z,94387.69
2019-03-11T05:00:16.279Z,94387.85
2019-03-11T05:02:44.938Z,94396.37
2019-03-11T05:05:13.985Z,94386.53
2019-03-11T05:07:43.714Z,94384.55
2019-03-11T05:10:12.391Z,94375.09
2019-03-11T05:12:41.083Z,94385.44
2019-03-11T05:15:10.450Z,94379.37
2019-03-11T05:17:39.093Z,94375.11
2019-03-11T05:20:08.300Z,94384.56
2019-03-11T05:22:36.918Z,94375.41
2019-03-11T05:25:05.992Z,94378.03
2019-03-11T05:27:34.592Z,94372.75
2019-03-11T05:30:03.259Z,94378.68
2019-03-11T05:32:31.907Z,94365.58
2019-03-11T05:35:00.500Z,94364.86
2019-03-11T05:37:29.178Z,94368.05
2019-03-11T05:39:57.842Z,94358.05
2019-03-11T05:42:26.538Z,94369.16
2019-03-11T05:44:55.173Z,94372.56
2019-03-11T05:47:23.828Z,94368.11
2019-03-11T05:49:52.402Z,94371.34
2019-03-11T05:52:21.043Z,94360.30
2019-03-11T05:54:49.680Z,94367.53
2019-03-11T05:57:18.425Z,94362.28
2019-03-11T05:59:47.163Z,94364.23
2019-03-11T06:02:15.943Z,94373.25
2019-03-11T06:04:44.543Z,94367.92
2019-03-11T06:07:13.145Z,94379.12
2019-03-11T06:09:42.762Z,94379.02
2019-03-11T06:12:11.347Z,94369.48
2019-03-11T06:14:39.988Z,94366.27
2019-03-11T06:17:08.584Z,94381.52
2019-03-11T06:19:37.489Z,94364.80
2019-03-11T06:22:18.780Z,94369.72
2019-03-11T06:24:48.453Z,94381.23
2019-03-11T06:27:17.029Z,94381.53
2019-03-11T06:29:46.319Z,94384.48
2019-03-11T06:32:15.011Z,94397.47
2019-03-11T06:34:43.619Z,94413.44
2019-03-11T06:37:12.203Z,94406.03
2019-03-11T06:39:40.812Z,94422.31
2019-03-11T06:42:09.694Z,94419.09
2019-03-11T06:44:38.715Z,94386.51
2019-03-11T06:47:07.563Z,94407.27
2019-03-11T06:49:36.244Z,94408.30
2019-03-11T06:52:05.145Z,94409.80
2019-03-11T06:54:34.100Z,94419.55
2019-03-11T06:57:03.352Z,94427.72
2019-03-11T06:59:31.937Z,94433.62
2019-03-11T07:02:00.577Z,94419.68
2019-03-11T07:04:29.677Z,94429.97
2019-03-11T07:06:58.291Z,94427.69
2019-03-11T07:09:27.034Z,94428.64
2019-03-11T07:11:55.800Z,94432.75
2019-03-11T07:14:24.563Z,94429.23
2019-03-11T07:16:53.886Z,94419.08
2019-03-11T07:19:22.485Z,94424.55
2019-03-11T07:21:51.197Z,94425.06
2019-03-11T07:24:19.812Z,94421.58
2019-03-11T07:26:48.466Z,94419.72
2019-03-11T07:29:17.644Z,94424.45
2019-03-11T07:31:46.171Z,94437.36
2019-03-11T07:34:14.840Z,94417.53
2019-03-11T07:36:43.541Z,94421.14
2019-03-11T07:39:12.172Z,94416.84
2019-03-11T07:41:40.789Z,94424.22
2019-03-11T07:46:29.846Z,94427.80
2019-03-11T07:48:58.441Z,94434.98
2019-03-11T07:51:27.027Z,94441.42
2019-03-11T07:53:55.620Z,94445.85
2019-03-11T07:56:24.524Z,94459.06
2019-03-11T07:58:53.159Z,94456.25
2019-03-11T08:01:22.112Z,94463.03
2019-03-11T08:03:50.703Z,94471.23
2019-03-11T08:06:19.621Z,94466.47
2019-03-11T08:08:48.236Z,94476.88
2019-03-11T08:11:16.945Z,94472.39
2019-03-11T08:13:45.778Z,94479.91
2019-03-11T08:16:14.856Z,94488.36
2019-03-11T08:18:43.515Z,94493.11
2019-03-11T08:21:12.111Z,94493.07
2019-03-11T08:23:40.696Z,94489.21
2019-03-11T08:26:09.298Z,94498.98
2019-03-11T08:28:38.221Z,94511.63
2019-03-11T08:31:06.887Z,94502.34
2019-03-11T08:33:35.742Z,94504.92
2019-03-11T08:36:04.839Z,94506.83
2019-03-11T08:38:33.757Z,94504.25
2019-03-11T08:41:02.280Z,94508.66
2019-03-11T08:43:31.389Z,94503.20
2019-03-11T08:46:00.486Z,94503.27
2019-03-11T08:48:29.221Z,94499.78
2019-03-11T08:50:57.828Z,94494.27
2019-03-11T08:53:26.451Z,94508.34
2019-03-11T08:55:55.079Z,94502.28
2019-03-11T08:58:24.012Z,94506.03
2019-03-11T09:00:52.631Z,94507.33
2019-03-11T09:03:21.227Z,94512.48
2019-03-11T09:05:49.826Z,94514.95
2019-03-11T09:08:18.686Z,94513.94
2019-03-11T09:10:47.288Z,94506.23
2019-03-11T09:13:15.895Z,94515.84
2019-03-11T09:15:44.483Z,94522.01
2019-03-11T09:18:13.227Z,94529.20
2019-03-11T09:20:41.828Z,94524.16
2019-03-11T09:23:10.498Z,94532.88
2019-03-11T09:25:39.258Z,94521.62
2019-03-11T09:28:08.148Z,94518.70
2019-03-11T09:30:36.851Z,94525.12
2019-03-11T09:33:08.249Z,94529.29
2019-03-11T09:35:36.230Z,94528.91
2019-03-11T09:38:05.123Z,94522.93
2019-03-11T09:40:33.738Z,94526.58
2019-03-11T09:43:02.358Z,94538.11
2019-03-11T09:45:30.959Z,94543.33
2019-03-11T09:47:59.569Z,94557.25
2019-03-11T09:50:28.166Z,94550.89
2019-03-11T09:52:56.808Z,94559.25
2019-03-11T09:55:25.408Z,94567.83
2019-03-11T09:57:53.983Z,94553.13
2019-03-11T10:00:22.618Z,94553.91
2019-03-11T10:02:53.197Z,94541.30
2019-03-11T10:05:21.908Z,94553.48
2019-03-11T10:07:50.759Z,94553.93
2019-03-11T10:10:19.411Z,94557.05
2019-03-11T10:12:48.068Z,94552.83
2019-03-11T10:15:17.714Z,94549.52
2019-03-11T10:17:46.440Z,94556.42
2019-03-11T10:20:15.246Z,94563.93
2019-03-11T10:22:43.850Z,94573.27
2019-03-11T10:25:12.573Z,94569.56
2019-03-11T10:27:41.142Z,94571.70
2019-03-11T10:30:11.660Z,94593.19
2019-03-11T10:32:41.057Z,94599.90
2019-03-11T10:35:30.086Z,94603.38
2019-03-11T10:37:41.585Z,94594.25
2019-03-11T10:40:12.835Z,94597.70
2019-03-11T10:42:41.770Z,94594.08
2019-03-11T10:45:10.939Z,94593.97
2019-03-11T10:47:39.556Z,94592.80
2019-03-11T10:50:09.003Z,94604.43
2019-03-11T10:52:37.606Z,94614.63
2019-03-11T10:55:06.932Z,94617.70
2019-03-11T10:57:35.573Z,94614.84
2019-03-11T11:00:05.474Z,94620.22
2019-03-11T11:02:34.098Z,94631.42
2019-03-11T11:05:02.703Z,94637.68
2019-03-11T11:07:31.337Z,94641.84
2019-03-11T11:10:00.063Z,94645.91
2019-03-11T11:12:28.705Z,94647.66
2019-03-11T11:14:57.457Z,94642.34
2019-03-11T11:17:26.388Z,94648.70
2019-03-11T11:20:03.105Z,94647.88
2019-03-11T11:22:25.574Z,94655.06
2019-03-11T11:24:54.705Z,94648.78
2019-03-11T11:27:23.686Z,94649.32
2019-03-11T11:29:52.348Z,94670.00
2019-03-11T11:32:21.193Z,94661.49
2019-03-11T11:34:50.178Z,94674.62
2019-03-11T11:37:18.857Z,94677.69
2019-03-11T11:39:47.500Z,94684.22
2019-03-11T11:42:16.093Z,94674.28
2019-03-11T11:44:44.683Z,94671.15
2019-03-11T11:47:13.287Z,94682.86
2019-03-11T11:49:41.910Z,94686.56
2019-03-11T11:52:10.531Z,94680.86
2019-03-11T11:54:39.211Z,94679.92
2019-03-11T11:57:07.898Z,94686.81
2019-03-11T11:59:36.613Z,94678.88
2019-03-11T12:02:05.250Z,94690.95
2019-03-11T12:04:34.122Z,94688.91
2019-03-11T12:07:02.829Z,94693.98
2019-03-11T12:09:31.445Z,94694.24
2019-03-11T12:12:00.096Z,94697.55
2019-03-11T12:14:28.839Z,94704.27
2019-03-11T12:16:57.731Z,94703.48
2019-03-11T12:19:26.588Z,94707.06
2019-03-11T12:21:55.245Z,94707.41
2019-03-11T12:24:23.888Z,94707.98
2019-03-11T12:26:52.576Z,94704.70
2019-03-11T12:29:21.168Z,94702.19
2019-03-11T12:31:50.158Z,94704.11
2019-03-11T12:34:18.894Z,94702.71
2019-03-11T12:36:47.838Z,94716.55
2019-03-11T12:39:16.683Z,94720.64
2019-03-11T12:41:45.715Z,94708.28
2019-03-11T12:44:14.355Z,94717.34
2019-03-11T12:46:43.026Z,94715.64
2019-03-11T12:49:11.626Z,94719.23
2019-03-11T12:51:49.230Z,94732.50
2019-03-11T12:54:10.795Z,94709.67
2019-03-11T12:56:39.404Z,94737.21
2019-03-11T12:59:08.025Z,94742.70
2019-03-11T13:01:36.676Z,94734.56
2019-03-11T13:04:05.437Z,94745.73
2019-03-11T13:06:34.274Z,94740.50
2019-03-11T13:09:02.864Z,94745.70
2019-03-11T13:11:31.489Z,94744.09
2019-03-11T13:14:00.346Z,94732.48
2019-03-11T13:16:28.917Z,94734.62
2019-03-11T13:18:59.252Z,94735.66
2019-03-11T13:21:30.077Z,94740.03
2019-03-11T13:23:58.910Z,94735.23
2019-03-11T13:26:27.593Z,94729.16
2019-03-11T13:28:56.219Z,94730.02
2019-03-11T13:31:24.828Z,94730.61
2019-03-11T13:33:53.435Z,94739.44
2019-03-11T13:36:22.514Z,94737.70
2019-03-11T13:38:51.189Z,94750.80
2019-03-11T13:41:19.877Z,94763.75
2019-03-11T13:43:48.810Z,94764.69
2019-03-11T13:46:17.393Z,94774.96
2019-03-11T13:48:46.119Z,94766.91
2019-03-11T13:51:14.887Z,94779.28
2019-03-11T13:53:43.603Z,94789.91
2019-03-11T13:56:12.449Z,94794.20
2019-03-11T13:58:41.149Z,94776.16
2019-03-11T14:01:09.827Z,94789.97
2019-03-11T14:03:39.081Z,94778.91
2019-03-11T14:06:07.773Z,94779.89
2019-03-11T14:08:36.333Z,94792.94
2019-03-11T14:11:05.203Z,94774.27
2019-03-11T14:13:33.807Z,94783.90
2019-03-11T14:16:02.476Z,94788.17
2019-03-11T14:18:31.369Z,94788.17
2019-03-11T14:20:59.979Z,94774.50
2019-03-11T14:23:28.634Z,94787.21
2019-03-11T14:25:57.262Z,94776.98
2019-03-11T14:28:25.940Z,94782.87
2019-03-11T14:30:54.593Z,94788.56
2019-03-11T14:33:23.299Z,94779.86
2019-03-11T14:35:52.392Z,94784.16
2019-03-11T14:38:21.060Z,94786.86
2019-03-11T14:40:49.700Z,94783.47
2019-03-11T14:43:18.558Z,94789.22
2019-03-11T14:45:47.368Z,94780.22
2019-03-11T14:48:16.226Z,94776.97
2019-03-11T14:50:46.198Z,94784.45
2019-03-11T14:53:15.548Z,94789.55
2019-03-11T14:55:48.875Z,94795.84
2019-03-11T14:58:29.289Z,94792.41
2019-03-11T15:00:54.848Z,94803.80
2019-03-11T15:03:23.495Z,94814.55
2019-03-11T15:05:53.531Z,94809.88
2019-03-11T15:08:22.903Z,94823.80
2019-03-11T15:10:51.756Z,94811.23
2019-03-11T15:13:20.734Z,94819.72
2019-03-11T15:15:49.321Z,94824.31
2019-03-11T15:18:18.201Z,94819.81
2019-03-11T15:20:46.806Z,94812.56
2019-03-11T15:23:20.705Z,94815.03
2019-03-11T15:25:46.314Z,94816.58
2019-03-11T15:28:14.911Z,94804.41
2019-03-11T15:30:43.514Z,94807.37
2019-03-11T15:33:12.288Z,94817.01
2019-03-11T15:35:40.987Z,94810.21
2019-03-11T15:38:09.803Z,94807.02
2019-03-11T15:40:38.463Z,94802.59
2019-03-11T15:43:07.372Z,94823.87
2019-03-11T15:45:38.970Z,94818.73
2019-03-11T15:48:06.549Z,94831.14
2019-03-11T15:50:35.323Z,94850.92
2019-03-11T15:53:03.966Z,94834.11
2019-03-11T15:55:32.927Z,94831.30
2019-03-11T15:58:01.525Z,94831.86
2019-03-11T16:00:30.282Z,94813.68
2019-03-11T16:02:59.278Z,94819.66
2019-03-11T16:05:27.965Z,94828.26
2019-03-11T16:07:56.834Z,94812.65
2019-03-11T16:10:26.025Z,94826.09
2019-03-11T16:12:54.687Z,94808.89
2019-03-11T16:15:23.273Z,94807.94
2019-03-11T16:17:51.935Z,94802.55
2019-03-11T16:20:20.847Z,94808.27
2019-03-11T16:22:49.666Z,94797.38
2019-03-11T16:25:18.629Z,94794.25
2019-03-11T16:27:47.385Z,94803.75
2019-03-11T16:30:17.666Z,94794.49
2019-03-11T16:32:58.175Z,94804.84
2019-03-11T16:35:17.208Z,94803.77
2019-03-11T16:37:46.040Z,94807.34
2019-03-11T16:40:15.008Z,94804.77
2019-03-11T16:42:43.580Z,94805.08
2019-03-11T16:45:12.784Z,94804.91
2019-03-11T16:47:41.672Z,94805.05
2019-03-11T16:50:12.758Z,94820.73
2019-03-11T16:52:41.417Z,94829.01
2019-03-11T16:55:11.369Z,94841.19
2019-03-11T16:57:40.054Z,94841.60
2019-03-11T17:00:14.228Z,94854.46
2019-03-11T17:02:42.890Z,94850.36
2019-03-11T17:05:11.627Z,94854.59
2019-03-11T17:07:40.381Z,94846.56
2019-03-11T17:10:10.184Z,94854.19
2019-03-11T17:12:38.825Z,94834.25
2019-03-11T17:15:08.011Z,94839.22
2019-03-11T17:17:36.794Z,94845.92
2019-03-11T17:20:06.105Z,94841.19
2019-03-11T17:22:35.375Z,94853.55
2019-03-11T17:25:03.999Z,94857.24
2019-03-11T17:27:32.864Z,94868.73
2019-03-11T17:30:02.048Z,94881.59
2019-03-11T17:32:30.664Z,94871.27
2019-03-11T17:34:59.283Z,94879.56
2019-03-11T17:37:29.627Z,94879.63
2019-03-11T17:39:58.275Z,94880.06
2019-03-11T17:42:27.431Z,94872.41
2019-03-11T17:44:56.764Z,94885.70
2019-03-11T17:47:26.066Z,94911.38
2019-03-11T17:49:54.901Z,94888.52
2019-03-11T17:52:24.639Z,94896.98
2019-03-11T17:54:53.314Z,94916.07
2019-03-11T17:57:21.984Z,94896.48
2019-03-11T17:59:51.011Z,94898.48
2019-03-11T18:02:19.623Z,94932.83
2019-03-11T18:04:48.390Z,94924.22
2019-03-11T18:07:17.126Z,94930.77
2019-03-11T18:09:46.080Z,94945.33
2019-03-11T18:12:14.664Z,94927.78
2019-03-11T18:14:43.292Z,94950.14
2019-03-11T18:17:12.399Z,94965.91
2019-03-11T18:19:41.012Z,94961.52
2019-03-11T18:22:09.592Z,94966.38
2019-03-11T18:24:38.225Z,94970.04
2019-03-11T18:27:06.955Z,94981.56
2019-03-11T18:29:35.588Z,94994.20
2019-03-11T18:32:04.506Z,94996.96
2019-03-11T18:34:33.391Z,95008.02
2019-03-11T18:37:01.978Z,95010.66
2019-03-11T18:39:31.081Z,95027.15
2019-03-11T18:42:00.043Z,95024.64
2019-03-11T18:44:28.969Z,95042.66
2019-03-11T18:46:58.137Z,95053.28
2019-03-11T18:49:27.031Z,95066.02
2019-03-11T18:51:55.737Z,95074.77
2019-03-11T18:54:24.890Z,95094.38
2019-03-11T18:56:53.672Z,95082.16
2019-03-11T18:59:22.536Z,95098.38
2019-03-11T19:01:51.495Z,95094.34
2019-03-11T19:04:20.143Z,95114.66
2019-03-11T19:06:48.844Z,95128.63
2019-03-11T19:09:17.720Z,95136.98
2019-03-11T19:11:46.320Z,95133.64
2019-03-11T19:14:14.957Z,95146.86
2019-03-11T19:16:44.109Z,95143.89
2019-03-11T19:19:13.282Z,95159.83
2019-03-11T19:21:41.962Z,95162.56
2019-03-11T19:24:11.017Z,95157.09
2019-03-11T19:26:40.696Z,95172.95
2019-03-11T19:29:09.221Z,95172.23
2019-03-11T19:31:38.442Z,95184.09
2019-03-11T19:34:07.086Z,95174.91
2019-03-11T19:36:35.827Z,95181.14
2019-03-11T19:39:07.015Z,95181.50
2019-03-11T19:41:35.703Z,95190.84
2019-03-11T19:44:04.498Z,95200.65
2019-03-11T19:46:34.845Z,95206.37
2019-03-11T19:49:04.019Z,95218.23
2019-03-11T19:51:33.055Z,95232.67
2019-03-11T19:54:01.746Z,95248.64
2019-03-11T19:56:30.419Z,95249.47
2019-03-11T19:58:59.818Z,95250.00
2019-03-11T20:01:28.535Z,95253.10
2019-03-11T20:03:57.260Z,95259.28
2019-03-11T20:06:25.932Z,95254.48
2019-03-11T20:08:56.440Z,95258.36
2019-03-11T20:11:25.373Z,95262.70
2019-03-11T20:13:54.759Z,95267.21
2019-03-11T20:16:26.160Z,95261.75
2019-03-11T20:18:55.470Z,95277.98
2019-03-11T20:21:24.248Z,95280.77
2019-03-11T20:23:52.899Z,95276.16
2019-03-11T20:26:22.672Z,95300.61
2019-03-11T20:28:51.959Z,95307.52
2019-03-11T20:31:21.063Z,95291.16
2019-03-11T20:33:50.618Z,95306.63
2019-03-11T20:36:21.104Z,95302.63
2019-03-11T20:38:50.545Z,95309.33
2019-03-11T20:41:19.132Z,95320.08
2019-03-11T20:43:48.615Z,95322.95
2019-03-11T20:46:17.488Z,95330.84
2019-03-11T20:48:46.682Z,95343.97
2019-03-11T20:51:15.918Z,95339.80
2019-03-11T20:53:44.935Z,95320.59
2019-03-11T20:56:13.925Z,95341.02
2019-03-11T20:58:42.563Z,95336.08
2019-03-11T21:01:11.237Z,95343.03
2019-03-11T21:03:40.242Z,95353.16
2019-03-11T21:06:09.360Z,95345.50
2019-03-11T21:08:38.579Z,95352.22
2019-03-11T21:11:07.605Z,95359.48
2019-03-11T21:13:36.551Z,95371.62
2019-03-11T21:16:05.435Z,95363.45
2019-03-11T21:18:34.593Z,95375.20
2019-03-11T21:21:05.312Z,95377.66
2019-03-11T21:23:35.084Z,95381.02
2019-03-11T21:26:04.598Z,95381.69
2019-03-11T21:28:34.243Z,95384.85
2019-03-11T21:31:03.975Z,95389.23
2019-03-11T21:33:35.450Z,95393.94
2019-03-11T21:36:04.575Z,95370.98
2019-03-11T21:38:34.556Z,95375.99
2019-03-11T21:41:03.524Z,95378.47
2019-03-11T21:43:32.920Z,95376.88
2019-03-11T21:46:01.950Z,95380.88
2019-03-11T21:48:33.540Z,95369.74
2019-03-11T21:51:02.264Z,95375.30
2019-03-11T21:53:31.133Z,95376.41
2019-03-11T21:56:00.054Z,95382.21
2019-03-11T21:58:29.011Z,95385.88
2019-03-11T22:00:57.855Z,95393.30
2019-03-11T22:03:26.480Z,95396.47
2019-03-11T22:05:55.125Z,95402.40
2019-03-11T22:08:23.782Z,95400.34
2019-03-11T22:10:52.370Z,95402.20
2019-03-11T22:13:21.027Z,95406.55
2019-03-11T22:15:49.641Z,95407.47
2019-03-11T22:18:18.281Z,95405.33
2019-03-11T22:20:47.411Z,95410.31
2019-03-11T22:23:16.307Z,95415.91
2019-03-11T22:25:44.909Z,95418.95
2019-03-11T22:28:13.755Z,95420.20
2019-03-11T22:30:42.436Z,95421.33
2019-03-11T22:33:11.255Z,95432.86
2019-03-11T22:35:40.033Z,95429.53
2019-03-11T22:38:09.119Z,95430.77
2019-03-11T22:40:38.084Z,95433.91
2019-03-11T22:43:06.704Z,95446.52
2019-03-11T22:45:35.639Z,95452.53
2019-03-11T22:48:04.298Z,95449.14
2019-03-11T22:50:32.918Z,95457.05
2019-03-11T22:53:01.514Z,95457.23
2019-03-11T22:55:30.125Z,95447.30
2019-03-11T22:57:58.729Z,95455.27
2019-03-11T23:00:53.783Z,95455.69
2019-03-11T23:03:22.842Z,95456.84
2019-03-11T23:05:57.779Z,95460.38
2019-03-11T23:08:22.053Z,95458.49
2019-03-11T23:10:51.250Z,95465.41
2019-03-11T23:13:19.935Z,95466.00
2019-03-11T23:15:48.554Z,95461.45
2019-03-11T23:18:17.454Z,95462.97
2019-03-11T23:20:46.554Z,95465.05
2019-03-11T23:23:15.202Z,95461.75
2019-03-11T23:25:43.876Z,95464.47
2019-03-11T23:28:12.759Z,95460.95
2019-03-11T23:30:41.485Z,95467.16
2019-03-11T23:33:10.343Z,95474.53
2019-03-11T23:35:39.162Z,95465.56
2019-03-11T23:38:08.003Z,95474.98
2019-03-11T23:40:37.009Z,95466.90
2019-03-11T23:43:05.681Z,95468.44
2019-03-11T23:45:34.622Z,95470.58
2019-03-11T23:48:03.243Z,95470.52
2019-03-11T23:50:31.937Z,95475.02
2019-03-11T23:53:00.782Z,95470.80
2019-03-11T23:55:29.414Z,95465.05
2019-03-11T23:57:58.094Z,95469.58
